createdAt,value
2019-03-09T00:00:10.709Z,4.60
2019-03-09T00:02:39.146Z,4.50
2019-03-09T00:05:07.714Z,4.40
2019-03-09T00:07:36.162Z,4.40
2019-03-09T00:10:07.525Z,4.50
2019-03-09T00:12:35.986Z,4.50
2019-03-09T00:15:06.345Z,4.50
2019-03-09T00:17:34.808Z,4.50
2019-03-09T00:20:03.342Z,4.50
2019-03-09T00:22:32.167Z,4.50
2019-03-09T00:25:02.254Z,4.40
2019-03-09T00:27:35.134Z,4.40
2019-03-09T00:30:14.668Z,4.30
2019-03-09T00:32:43.179Z,4.30
2019-03-09T00:35:11.874Z,4.30
2019-03-09T00:37:40.329Z,4.30
2019-03-09T00:40:11.251Z,4.40
2019-03-09T00:42:41.904Z,4.40
2019-03-09T00:45:10.421Z,4.40
2019-03-09T00:47:38.890Z,4.50
2019-03-09T00:50:09.758Z,4.50
2019-03-09T00:52:38.189Z,4.60
2019-03-09T00:55:32.378Z,4.60
2019-03-09T00:58:01.090Z,4.60
2019-03-09T01:00:29.584Z,4.60
2019-03-09T01:02:58.304Z,4.70
2019-03-09T01:05:26.785Z,4.60
2019-03-09T01:07:55.288Z,4.60
2019-03-09T01:10:23.780Z,4.60
2019-03-09T01:12:52.211Z,4.60
2019-03-09T01:15:20.721Z,4.60
2019-03-09T01:17:49.226Z,4.70
2019-03-09T01:20:17.732Z,4.70
2019-03-09T01:22:46.161Z,4.70
2019-03-09T01:25:14.865Z,4.70
2019-03-09T01:27:43.299Z,4.80
2019-03-09T01:30:15.345Z,4.80
2019-03-09T01:32:43.769Z,4.80
2019-03-09T01:35:12.282Z,4.80
2019-03-09T01:37:41.301Z,4.80
2019-03-09T01:40:12.941Z,4.80
2019-03-09T01:42:41.369Z,4.80
2019-03-09T01:45:12.450Z,4.90
2019-03-09T01:47:40.874Z,4.90
2019-03-09T01:50:10.262Z,4.90
2019-03-09T01:52:39.545Z,4.90
2019-03-09T01:55:09.827Z,4.90
2019-03-09T01:57:38.259Z,5.00
2019-03-09T02:00:10.039Z,5.00
2019-03-09T02:02:38.534Z,5.00
2019-03-09T02:05:08.430Z,5.00
2019-03-09T02:07:36.925Z,5.00
2019-03-09T02:10:08.338Z,5.00
2019-03-09T02:12:36.765Z,5.00
2019-03-09T02:15:11.447Z,5.00
2019-03-09T02:17:39.883Z,5.00
2019-03-09T02:20:10.700Z,5.00
2019-03-09T02:22:39.120Z,5.00
2019-03-09T02:25:09.097Z,4.90
2019-03-09T02:27:37.525Z,4.90
2019-03-09T02:30:17.944Z,4.80
2019-03-09T02:32:46.805Z,4.80
2019-03-09T02:35:16.589Z,4.80
2019-03-09T02:37:45.016Z,4.80
2019-03-09T02:40:18.139Z,4.80
2019-03-09T02:42:46.569Z,4.80
2019-03-09T02:45:20.778Z,4.70
2019-03-09T02:47:49.208Z,4.80
2019-03-09T02:50:17.910Z,4.80
2019-03-09T02:52:46.409Z,4.80
2019-03-09T02:55:15.021Z,4.80
2019-03-09T02:57:43.451Z,4.90
2019-03-09T03:00:16.766Z,4.80
2019-03-09T03:02:49.865Z,4.90
2019-03-09T03:05:18.326Z,4.90
2019-03-09T03:07:46.761Z,4.90
2019-03-09T03:10:15.948Z,4.90
2019-03-09T03:12:44.446Z,4.90
2019-03-09T03:15:29.790Z,5.00
2019-03-09T03:17:58.215Z,5.00
2019-03-09T03:20:26.703Z,4.90
2019-03-09T03:22:55.176Z,5.00
2019-03-09T03:25:23.803Z,5.00
2019-03-09T03:27:52.260Z,5.00
2019-03-09T03:30:20.890Z,5.10
2019-03-09T03:32:49.710Z,5.10
2019-03-09T03:35:18.217Z,5.10
2019-03-09T03:37:46.651Z,5.10
2019-03-09T03:40:15.149Z,5.10
2019-03-09T03:42:43.759Z,5.20
2019-03-09T03:45:13.882Z,5.20
2019-03-09T03:47:42.310Z,5.20
2019-03-09T03:50:10.897Z,5.30
2019-03-09T03:52:39.479Z,5.30
2019-03-09T03:55:11.586Z,5.30
2019-03-09T03:57:40.019Z,5.30
2019-03-09T04:00:11.547Z,5.40
2019-03-09T04:02:39.983Z,5.40
2019-03-09T04:05:08.644Z,5.40
2019-03-09T04:07:37.245Z,5.40
2019-03-09T04:10:13.439Z,5.40
2019-03-09T04:12:43.056Z,5.40
2019-03-09T04:15:12.636Z,5.50
2019-03-09T04:17:41.155Z,5.40
2019-03-09T04:20:12.055Z,5.40
2019-03-09T04:22:40.497Z,5.40
2019-03-09T04:25:09.870Z,5.40
2019-03-09T04:27:38.386Z,5.40
2019-03-09T04:30:10.283Z,5.40
2019-03-09T04:32:38.777Z,5.40
2019-03-09T04:35:07.449Z,5.50
2019-03-09T04:37:36.142Z,5.50
2019-03-09T04:40:13.202Z,5.50
2019-03-09T04:42:41.993Z,5.50
2019-03-09T04:45:12.526Z,5.50
2019-03-09T04:47:40.972Z,5.50
2019-03-09T04:50:12.487Z,5.50
2019-03-09T04:52:41.241Z,5.50
2019-03-09T04:55:10.557Z,5.50
2019-03-09T04:57:39.329Z,5.50
2019-03-09T05:00:10.973Z,5.50
2019-03-09T05:02:39.477Z,5.60
2019-03-09T05:05:09.851Z,5.60
2019-03-09T05:07:40.125Z,5.60
2019-03-09T05:10:23.578Z,5.60
2019-03-09T05:12:58.435Z,5.60
2019-03-09T05:15:27.166Z,5.60
2019-03-09T05:17:55.602Z,5.60
2019-03-09T05:20:24.030Z,5.60
2019-03-09T05:22:52.817Z,5.70
2019-03-09T05:25:21.277Z,5.70
2019-03-09T05:27:49.717Z,5.70
2019-03-09T05:30:36.824Z,5.70
2019-03-09T05:33:05.250Z,5.70
2019-03-09T05:35:33.971Z,5.70
2019-03-09T05:38:02.508Z,5.70
2019-03-09T05:40:30.964Z,5.70
2019-03-09T05:42:59.390Z,5.70
2019-03-09T05:45:27.821Z,5.80
2019-03-09T05:47:56.267Z,5.80
2019-03-09T05:50:24.692Z,5.80
2019-03-09T05:53:02.268Z,5.80
2019-03-09T05:55:30.770Z,5.80
2019-03-09T05:57:59.214Z,5.80
2019-03-09T06:00:27.653Z,5.80
2019-03-09T06:02:56.106Z,5.80
2019-03-09T06:05:36.093Z,5.90
2019-03-09T06:08:05.070Z,5.90
2019-03-09T06:10:33.599Z,5.90
2019-03-09T06:13:02.279Z,5.90
2019-03-09T06:15:31.082Z,5.90
2019-03-09T06:17:59.498Z,6.00
2019-03-09T06:20:27.962Z,6.00
2019-03-09T06:22:56.388Z,6.10
2019-03-09T06:25:24.835Z,6.10
2019-03-09T06:27:53.272Z,6.10
2019-03-09T06:30:21.726Z,6.20
2019-03-09T06:33:18.473Z,6.20
2019-03-09T06:36:06.061Z,6.20
2019-03-09T06:38:40.667Z,6.20
2019-03-09T06:41:15.491Z,6.30
2019-03-09T06:43:43.970Z,6.30
2019-03-09T06:46:12.398Z,6.30
2019-03-09T06:48:40.859Z,6.30
2019-03-09T06:51:09.533Z,6.40
2019-03-09T06:53:38.326Z,6.40
2019-03-09T06:56:06.782Z,6.50
2019-03-09T06:58:35.209Z,6.50
2019-03-09T07:01:23.329Z,6.50
2019-03-09T07:03:51.830Z,6.50
2019-03-09T07:06:20.587Z,6.60
2019-03-09T07:08:49.083Z,6.60
2019-03-09T07:11:17.782Z,6.60
2019-03-09T07:13:52.782Z,6.70
2019-03-09T07:16:16.453Z,6.70
2019-03-09T07:18:44.868Z,6.70
2019-03-09T07:21:13.568Z,6.70
2019-03-09T07:23:41.996Z,6.70
2019-03-09T07:26:10.428Z,6.70
2019-03-09T07:28:38.852Z,6.80
2019-03-09T07:31:07.302Z,6.90
2019-03-09T07:33:35.730Z,6.90
2019-03-09T07:36:04.343Z,6.90
2019-03-09T07:38:32.766Z,6.90
2019-03-09T07:41:01.474Z,6.90
2019-03-09T07:43:31.546Z,7.00
2019-03-09T07:46:00.012Z,7.00
2019-03-09T07:48:28.760Z,7.00
2019-03-09T07:50:57.194Z,7.00
2019-03-09T07:53:25.639Z,7.00
2019-03-09T07:55:54.086Z,7.10
2019-03-09T07:58:22.801Z,7.10
2019-03-09T08:00:51.582Z,7.10
2019-03-09T08:03:20.014Z,7.20
2019-03-09T08:05:48.537Z,7.30
2019-03-09T08:08:17.233Z,7.40
2019-03-09T08:10:45.713Z,7.40
2019-03-09T08:13:14.205Z,7.50
2019-03-09T08:15:51.407Z,7.60
2019-03-09T08:18:20.167Z,7.60
2019-03-09T08:20:48.609Z,7.60
2019-03-09T08:23:17.035Z,7.60
2019-03-09T08:25:45.484Z,7.70
2019-03-09T08:28:15.636Z,7.70
2019-03-09T08:30:44.081Z,7.80
2019-03-09T08:33:12.518Z,7.80
2019-03-09T08:35:41.019Z,7.80
2019-03-09T08:38:09.459Z,7.80
2019-03-09T08:40:37.883Z,7.80
2019-03-09T08:43:08.314Z,7.90
2019-03-09T08:45:36.906Z,7.90
2019-03-09T08:48:05.468Z,7.90
2019-03-09T08:50:33.903Z,7.90
2019-03-09T08:53:02.332Z,8.00
2019-03-09T08:55:30.795Z,7.90
2019-03-09T08:57:59.291Z,8.00
2019-03-09T09:00:32.852Z,7.90
2019-03-09T09:03:01.398Z,7.90
2019-03-09T09:05:30.223Z,7.90
2019-03-09T09:07:58.680Z,7.90
2019-03-09T09:10:27.169Z,8.00
2019-03-09T09:12:55.874Z,8.00
2019-03-09T09:15:24.693Z,8.00
2019-03-09T09:17:53.193Z,8.10
2019-03-09T09:20:28.022Z,8.20
2019-03-09T09:22:56.486Z,8.40
2019-03-09T09:25:24.917Z,8.60
2019-03-09T09:27:53.730Z,8.70
2019-03-09T09:30:29.612Z,8.70
2019-03-09T09:32:58.250Z,8.70
2019-03-09T09:35:27.075Z,8.70
2019-03-09T09:37:55.514Z,8.70
2019-03-09T09:40:27.347Z,8.70
2019-03-09T09:42:56.198Z,8.70
2019-03-09T09:45:24.753Z,8.80
2019-03-09T09:47:53.191Z,8.90
2019-03-09T09:50:21.769Z,8.90
2019-03-09T09:52:50.208Z,9.00
2019-03-09T09:55:19.838Z,9.10
2019-03-09T09:57:48.274Z,9.20
2019-03-09T10:00:20.126Z,9.30
2019-03-09T10:02:48.650Z,9.30
2019-03-09T10:05:17.107Z,9.40
2019-03-09T10:07:45.535Z,9.60
2019-03-09T10:10:18.402Z,9.70
2019-03-09T10:12:46.821Z,9.70
2019-03-09T10:15:20.534Z,9.80
2019-03-09T10:17:48.948Z,9.80
2019-03-09T10:20:17.409Z,9.90
2019-03-09T10:22:45.845Z,10.00
2019-03-09T10:25:14.348Z,10.10
2019-03-09T10:27:42.949Z,10.20
2019-03-09T10:30:14.622Z,10.30
2019-03-09T10:32:43.393Z,10.40
2019-03-09T10:35:11.970Z,10.50
2019-03-09T10:37:40.406Z,10.50
2019-03-09T10:40:11.357Z,10.60
2019-03-09T10:42:39.856Z,10.70
2019-03-09T10:45:16.462Z,10.80
2019-03-09T10:47:44.937Z,10.80
2019-03-09T10:50:17.546Z,10.90
2019-03-09T10:52:46.050Z,11.00
2019-03-09T10:55:20.038Z,11.10
2019-03-09T10:57:48.540Z,11.20
2019-03-09T11:00:23.295Z,11.30
2019-03-09T11:02:51.889Z,11.30
2019-03-09T11:05:20.400Z,11.30
2019-03-09T11:07:48.893Z,11.30
2019-03-09T11:10:17.405Z,11.40
2019-03-09T11:12:45.842Z,11.30
2019-03-09T11:15:14.375Z,11.40
2019-03-09T11:17:43.106Z,11.60
2019-03-09T11:20:13.800Z,11.80
2019-03-09T11:22:42.302Z,11.90
2019-03-09T11:25:11.392Z,12.10
2019-03-09T11:27:39.897Z,12.20
2019-03-09T11:30:13.784Z,12.30
2019-03-09T11:32:42.217Z,12.40
2019-03-09T11:35:10.980Z,12.70
2019-03-09T11:37:39.409Z,12.80
2019-03-09T11:40:07.845Z,12.90
2019-03-09T11:42:36.268Z,12.90
2019-03-09T11:45:08.461Z,13.10
2019-03-09T11:47:36.897Z,13.10
2019-03-09T11:50:08.149Z,13.20
2019-03-09T11:52:36.582Z,13.20
2019-03-09T11:55:07.419Z,13.50
2019-03-09T11:57:35.844Z,13.50
2019-03-09T12:00:07.318Z,13.60
2019-03-09T12:02:39.177Z,13.50
2019-03-09T12:05:08.439Z,13.50
2019-03-09T12:07:36.857Z,13.50
2019-03-09T12:10:08.460Z,13.50
2019-03-09T12:12:37.028Z,13.50
2019-03-09T12:15:08.528Z,13.70
2019-03-09T12:17:36.952Z,13.70
2019-03-09T12:20:07.640Z,13.80
2019-03-09T12:22:36.141Z,13.90
2019-03-09T12:25:09.969Z,13.90
2019-03-09T12:27:38.469Z,14.00
2019-03-09T12:30:09.921Z,13.90
2019-03-09T12:32:38.349Z,14.00
2019-03-09T12:35:08.380Z,14.00
2019-03-09T12:37:36.830Z,14.00
2019-03-09T12:40:11.546Z,13.90
2019-03-09T12:42:40.045Z,13.90
2019-03-09T12:45:10.321Z,14.00
2019-03-09T12:47:38.930Z,14.00
2019-03-09T12:50:13.169Z,14.00
2019-03-09T12:52:41.601Z,14.00
2019-03-09T12:55:10.529Z,14.00
2019-03-09T12:57:38.961Z,13.90
2019-03-09T13:00:10.486Z,14.00
2019-03-09T13:16:44.750Z,14.40
2019-03-09T13:19:13.450Z,14.60
2019-03-09T13:21:41.904Z,14.60
2019-03-09T13:24:10.338Z,14.40
2019-03-09T13:26:39.147Z,14.30
2019-03-09T13:29:07.588Z,14.30
2019-03-09T13:31:36.043Z,14.20
2019-03-09T13:34:04.477Z,14.30
2019-03-09T13:36:32.921Z,14.20
2019-03-09T13:39:01.865Z,14.10
2019-03-09T13:41:30.323Z,14.20
2019-03-09T13:43:58.754Z,14.20
2019-03-09T13:46:27.298Z,14.10
2019-03-09T13:48:55.734Z,14.10
2019-03-09T13:51:24.192Z,14.10
2019-03-09T13:53:52.949Z,14.10
2019-03-09T13:56:21.473Z,14.10
2019-03-09T13:58:49.915Z,14.10
2019-03-09T14:01:18.378Z,14.00
2019-03-09T14:03:46.816Z,14.10
2019-03-09T14:06:15.254Z,14.10
2019-03-09T14:08:43.680Z,14.20
2019-03-09T14:11:12.423Z,14.30
2019-03-09T14:13:41.230Z,14.30
2019-03-09T14:16:10.055Z,14.30
2019-03-09T14:18:38.830Z,14.40
2019-03-09T14:21:07.272Z,14.30
2019-03-09T14:23:35.718Z,14.40
2019-03-09T14:26:04.170Z,14.40
2019-03-09T14:28:32.861Z,14.30
2019-03-09T14:31:01.369Z,14.30
2019-03-09T14:33:30.200Z,14.30
2019-03-09T14:35:58.751Z,14.30
2019-03-09T14:38:27.653Z,14.00
2019-03-09T14:40:56.098Z,13.80
2019-03-09T14:43:24.769Z,13.70
2019-03-09T14:45:53.783Z,13.60
2019-03-09T14:48:22.226Z,13.50
2019-03-09T14:50:50.773Z,13.40
2019-03-09T14:53:19.490Z,13.30
2019-03-09T14:55:48.006Z,13.20
2019-03-09T14:58:16.767Z,13.20
2019-03-09T15:00:45.565Z,13.20
2019-03-09T15:03:14.331Z,13.20
2019-03-09T15:05:43.345Z,13.10
2019-03-09T15:08:11.849Z,13.20
2019-03-09T15:10:40.630Z,13.10
2019-03-09T15:13:09.390Z,13.00
2019-03-09T15:15:37.966Z,12.90
2019-03-09T15:18:06.573Z,12.70
2019-03-09T15:20:35.166Z,12.70
2019-03-09T15:23:03.675Z,12.80
2019-03-09T15:25:32.136Z,12.60
2019-03-09T15:28:00.762Z,12.50
2019-03-09T15:30:29.781Z,12.40
2019-03-09T15:32:58.595Z,12.30
2019-03-09T15:35:27.349Z,12.40
2019-03-09T15:37:55.872Z,12.20
2019-03-09T15:40:24.608Z,12.10
2019-03-09T15:42:53.554Z,12.10
2019-03-09T15:45:22.058Z,12.10
2019-03-09T15:47:51.150Z,12.10
2019-03-09T15:50:21.783Z,11.90
2019-03-09T15:52:50.242Z,11.80
2019-03-09T15:55:19.307Z,11.70
2019-03-09T15:57:48.245Z,11.50
2019-03-09T16:00:24.297Z,11.50
2019-03-09T16:02:53.046Z,11.50
2019-03-09T16:05:21.616Z,11.20
2019-03-09T16:07:50.133Z,11.10
2019-03-09T16:10:22.463Z,11.00
2019-03-09T16:12:51.074Z,11.00
2019-03-09T16:15:19.970Z,11.00
2019-03-09T16:17:48.893Z,10.90
2019-03-09T16:20:25.861Z,10.90
2019-03-09T16:22:54.310Z,10.90
2019-03-09T16:25:22.894Z,10.80
2019-03-09T16:27:51.761Z,10.80
2019-03-09T16:30:21.502Z,10.70
2019-03-09T16:32:50.216Z,10.70
2019-03-09T16:35:18.935Z,10.60
2019-03-09T16:37:49.076Z,10.60
2019-03-09T16:40:21.770Z,10.50
2019-03-09T16:42:50.217Z,10.50
2019-03-09T16:45:18.895Z,10.50
2019-03-09T16:47:47.681Z,10.50
2019-03-09T16:50:17.779Z,10.40
2019-03-09T16:52:46.226Z,10.40
2019-03-09T16:55:14.978Z,10.40
2019-03-09T16:57:43.935Z,10.40
2019-03-09T17:00:23.415Z,10.40
2019-03-09T17:02:52.338Z,10.40
2019-03-09T17:05:21.204Z,10.30
2019-03-09T17:07:49.793Z,10.30
2019-03-09T17:10:19.407Z,10.20
2019-03-09T17:12:48.194Z,10.20
2019-03-09T17:15:21.725Z,10.20
2019-03-09T17:17:50.261Z,10.10
2019-03-09T17:20:19.293Z,10.10
2019-03-09T17:22:48.199Z,10.10
2019-03-09T17:25:16.897Z,10.10
2019-03-09T17:27:45.397Z,10.10
2019-03-09T17:30:18.929Z,10.20
2019-03-09T17:32:47.370Z,10.20
2019-03-09T17:35:15.793Z,10.20
2019-03-09T17:37:44.245Z,10.30
2019-03-09T17:40:16.790Z,10.20
2019-03-09T17:42:45.301Z,10.20
2019-03-09T17:45:24.389Z,10.10
2019-03-09T17:47:52.850Z,10.00
2019-03-09T17:50:21.354Z,9.90
2019-03-09T17:52:49.780Z,9.90
2019-03-09T17:55:18.228Z,9.80
2019-03-09T17:57:46.830Z,9.80
2019-03-09T18:00:42.180Z,9.70
2019-03-09T18:03:02.868Z,9.70
2019-03-09T18:05:31.368Z,9.70
2019-03-09T18:07:59.809Z,9.60
2019-03-09T18:10:34.702Z,9.50
2019-03-09T18:13:03.150Z,9.50
2019-03-09T18:15:31.982Z,9.50
2019-03-09T18:18:00.449Z,9.50
2019-03-09T18:20:28.871Z,9.50
2019-03-09T18:22:57.309Z,9.50
2019-03-09T18:25:25.736Z,9.40
2019-03-09T18:27:54.478Z,9.40
2019-03-09T18:30:22.981Z,9.40
2019-03-09T18:32:51.425Z,9.30
2019-03-09T18:35:20.125Z,9.30
2019-03-09T18:37:48.739Z,9.30
2019-03-09T18:40:17.737Z,9.20
2019-03-09T18:42:46.492Z,9.20
2019-03-09T18:45:17.224Z,9.10
2019-03-09T18:47:45.662Z,9.00
2019-03-09T18:50:14.425Z,8.90
2019-03-09T18:52:42.941Z,8.80
2019-03-09T18:55:11.365Z,8.80
2019-03-09T18:57:39.813Z,8.80
2019-03-09T19:00:22.181Z,8.80
2019-03-09T19:02:50.621Z,8.80
2019-03-09T19:05:19.121Z,8.70
2019-03-09T19:07:47.565Z,8.70
2019-03-09T19:10:23.580Z,8.60
2019-03-09T19:12:52.287Z,8.50
2019-03-09T19:15:21.058Z,8.40
2019-03-09T19:17:49.504Z,8.40
2019-03-09T19:20:21.705Z,8.40
2019-03-09T19:22:50.224Z,8.30
2019-03-09T19:25:18.717Z,8.30
2019-03-09T19:27:47.237Z,8.20
2019-03-09T19:30:18.092Z,8.20
2019-03-09T19:32:46.954Z,8.00
2019-03-09T19:35:15.391Z,7.90
2019-03-09T19:37:43.839Z,7.90
2019-03-09T19:40:20.615Z,7.90
2019-03-09T19:42:49.129Z,7.90
2019-03-09T19:45:18.592Z,7.70
2019-03-09T19:47:47.037Z,7.60
2019-03-09T19:50:17.990Z,7.60
2019-03-09T19:52:46.427Z,7.60
2019-03-09T19:55:15.127Z,7.60
2019-03-09T19:57:43.573Z,7.60
2019-03-09T20:00:16.654Z,7.60
2019-03-09T20:02:45.088Z,7.50
2019-03-09T20:05:13.581Z,7.50
2019-03-09T20:07:42.098Z,7.50
2019-03-09T20:10:16.594Z,7.70
2019-03-09T20:12:45.117Z,8.10
2019-03-09T20:15:16.639Z,8.60
2019-03-09T20:17:45.843Z,8.90
2019-03-09T20:20:18.835Z,9.20
2019-03-09T20:22:47.342Z,9.30
2019-03-09T20:25:15.777Z,9.40
2019-03-09T20:27:44.210Z,9.50
2019-03-09T20:30:17.531Z,9.60
2019-03-09T20:32:45.964Z,9.70
2019-03-09T20:35:14.529Z,9.90
2019-03-09T20:37:42.977Z,10.30
2019-03-09T20:40:15.996Z,10.40
2019-03-09T20:42:44.513Z,10.50
2019-03-09T20:45:15.763Z,10.60
2019-03-09T20:47:44.270Z,10.60
2019-03-09T20:50:16.810Z,10.80
2019-03-09T20:52:45.259Z,10.70
2019-03-09T20:55:13.673Z,10.70
2019-03-09T20:57:42.129Z,10.70
2019-03-09T21:00:18.598Z,10.80
2019-03-09T21:02:47.377Z,10.90
2019-03-09T21:05:15.814Z,10.80
2019-03-09T21:07:44.274Z,10.80
2019-03-09T21:10:20.402Z,10.90
2019-03-09T21:13:05.488Z,10.90
2019-03-09T21:15:34.014Z,10.90
2019-03-09T21:18:02.525Z,10.90
2019-03-09T21:20:31.035Z,10.90
2019-03-09T21:22:59.553Z,11.10
2019-03-09T21:25:28.127Z,11.10
2019-03-09T21:27:56.560Z,11.30
2019-03-09T21:30:24.987Z,11.50
2019-03-09T21:32:53.430Z,11.50
2019-03-09T21:35:21.862Z,11.30
2019-03-09T21:37:50.310Z,11.30
2019-03-09T21:40:18.744Z,11.40
2019-03-09T21:42:47.463Z,11.40
2019-03-09T21:45:16.408Z,11.60
2019-03-09T21:47:44.885Z,11.60
2019-03-09T21:50:14.782Z,11.70
2019-03-09T21:52:43.218Z,11.60
2019-03-09T21:55:13.970Z,11.60
2019-03-09T21:57:42.755Z,11.50
2019-03-09T22:00:16.618Z,11.60
2019-03-09T22:02:45.053Z,11.60
2019-03-09T22:05:13.589Z,11.70
2019-03-09T22:07:42.083Z,11.80
2019-03-09T22:10:11.780Z,11.80
2019-03-09T22:12:40.201Z,11.80
2019-03-09T22:15:16.325Z,11.70
2019-03-09T22:17:44.752Z,11.80
2019-03-09T22:20:14.656Z,11.70
2019-03-09T22:22:43.360Z,11.70
2019-03-09T22:25:18.201Z,11.70
2019-03-09T22:27:46.645Z,11.80
2019-03-09T22:30:18.738Z,11.70
2019-03-09T22:32:47.180Z,11.60
2019-03-09T22:35:15.719Z,11.60
2019-03-09T22:37:44.208Z,11.70
2019-03-09T22:40:14.950Z,11.80
2019-03-09T22:42:43.448Z,11.80
2019-03-09T22:45:13.041Z,11.70
2019-03-09T22:47:41.513Z,11.60
2019-03-09T22:50:15.541Z,11.70
2019-03-09T22:52:44.002Z,11.60
2019-03-09T22:55:12.869Z,11.60
2019-03-09T22:57:41.332Z,11.60
2019-03-09T23:00:21.274Z,11.60
2019-03-09T23:02:49.866Z,11.70
2019-03-09T23:05:18.774Z,11.70
2019-03-09T23:07:47.197Z,11.70
2019-03-09T23:10:17.501Z,11.70
2019-03-09T23:12:45.966Z,11.60
2019-03-09T23:15:16.141Z,11.50
2019-03-09T23:17:45.198Z,11.50
2019-03-09T23:20:15.266Z,11.60
2019-03-09T23:22:43.880Z,11.60
2019-03-09T23:25:14.433Z,11.50
2019-03-09T23:27:43.303Z,11.40
2019-03-09T23:30:19.322Z,11.40
2019-03-09T23:32:47.854Z,11.40
2019-03-09T23:35:16.429Z,11.40
2019-03-09T23:37:46.409Z,11.40
2019-03-09T23:40:17.380Z,11.30
2019-03-09T23:42:45.904Z,11.30
2019-03-09T23:45:17.417Z,11.20
2019-03-09T23:47:46.023Z,11.10
2019-03-09T23:50:16.570Z,11.00
2019-03-09T23:52:45.417Z,11.00
2019-03-09T23:55:22.009Z,11.00
2019-03-09T23:57:44.628Z,11.00
